Racecast

Shelby Balding

Auburn (AL) · Sr · CENTENNIALCO D5A5A · Compare head to head

Athlete rating 115.8 2025 TF season
Best race 145.6 XC
Races 66
Seasons 8 2018 — 2025

RankedNation #2613·AL #70·Team #57 ?

Rating scale ?
Speed rating — all races

Cross Country

XC speed rating

2025 XC 114.9

Auburn (AL) · Grade Sr

Date Meet Event Result Place Rating Difficulty PR/SR Flags
2025-08-29 Oxford Lake Park (Sports Complex) 5000m 18:13.5 11th · 5th on team 114.9 +0.002 ★CR SR CSR RSR

2024 XC 118.0

Auburn (AL) · Grade Jr

Date Meet Event Result Place Rating Difficulty PR/SR Flags
2024-11-01 Texas A&M University 6000m 21:06 107th · 7th on team 118.9 -0.013 ★PR ★CR SR CSR RSR
2024-10-19 Zimmer Championship Cross Country Course 6000m 22:25 117th · 6th on team 116.5 +0.025 ★CR CSR
2024-09-27 Gans Creek Recreation Area 6000m 21:26.6 80th · 6th on team 118.6 +0.013 PR ★CR SR CSR RSR

2023 XC 117.7

Auburn (AL) · Grade So

Date Meet Event Result Place Rating Difficulty PR/SR Flags
2023-11-10 Mark Bostick Golf Course 6000m 21:43.6 155th · 7th on team 117.5 -0.000 ★CR CSR
2023-10-27 Charwood Golf Club 6000m 21:40.4 64th · 3rd on team 120.1 +0.019 PR ★CR SR CSR RSR
2023-10-13 Harry Pritchard Running Course 5846m 21:16.9 56th · 6th on team 118.5 +0.032 ★PR ★CR SR CSR RSR
2023-09-29 Franklin Park 5000m 18:29.7 73rd · 7th on team 114.7 +0.015 ★CR SR CSR RSR

2021 XC 140.6

Cherry Creek (CO) · Grade 12

Date Meet Event Result Place Rating Difficulty PR/SR Flags
2021-12-04 John Hunt Cross Country Park 5000m 17:41.4 74th · 2nd on team 140.7 +0.000 ★PR ★CR SR CSR
2021-10-30 Norris Penrose Event Center 5000m 18:42.7 12th · 2nd on team 142.8 +0.067 ★CR CSR RSR
2021-10-21 Arapahoe County Fairgrounds 5000m 18:42.8 5th · 2nd on team 140.3 +0.065 ★CR CSR
2021-10-08 Northwest Open Space 5000m 18:02.6 5th · 2nd on team 142.4 +0.020 ★CR SR CSR RSR
2021-09-25 Blue Lake Regional Park 5000m 18:15.1 19th · 3rd on team 138.0 -0.001 ★CR SR CSR
2021-09-11 Heritage High School 5000m 18:23.2 21st · 3rd on team 139.6 -0.001 SR CSR RSR

2020 XC 139.6

Cherry Creek (CO) · Grade 11

Date Meet Event Result Place Rating Difficulty PR/SR Flags
2020-11-15 Laverne Gibson Course 5000m 18:10.7 18th · 2nd on team 145.6 +0.029 ★CR ★R CSR RSR
2020-11-01 Heritage High School 5000m 17:45 5th · 1st on team 140.7 -0.001 PR ★CR R SR CSR RSR
2020-10-08 Arapahoe County Fairgrounds 5000m 19:24.5 9th · 3rd on team 138.2 +0.065 CR CSR
2020-09-04 Julia deKoevend Park 5000m 19:06.2 9th · 4th on team 138.6 +0.054 ★CR R SR CSR RSR
2020-08-22 Mullen High School 5000m 19:19.4 9th · 4th on team 135.0 +0.040 ★CR SR CSR RSR

2019 XC 135.5

Cherry Creek (CO) · Grade 10

Date Meet Event Result Place Rating Difficulty PR/SR Flags
2019-09-07 Heritage High School 5000m 18:14.9 12th · 2nd on team 136.0 -0.001 PR CR SR CSR RSR
2019-08-30 Julia deKoevend Park 5000m 19:22 2nd · 2nd on team 135.1 +0.054 CR SR CSR RSR

2018 XC 131.0

Cherry Creek (CO) · Grade 9

Date Meet Event Result Place Rating Difficulty PR/SR Flags
2018-11-17 Grande Sports Complex 5000m 18:43.9 75th · 2nd on team 133.0 +0.004 PR ★CR SR CSR
2018-10-27 Norris Penrose Event Center 5000m 19:13.3 14th · 2nd on team 137.3 +0.067 CR R CSR RSR
2018-10-18 Aurora Sports Park 5000m 19:11 4th · 2nd on team 133.3 +0.030 ★CR R CSR RSR
2018-10-11 Aurora Sports Park 5000m 19:35 6th · 2nd on team 129.1 +0.030 CR CSR
2018-09-29 Portland Meadows Race Track 5000m 19:03 32nd · 3rd on team 131.9 +0.017 PR ★CR R SR CSR RSR
2018-09-21 Clement Park 5000m 19:43 22nd · 3rd on team 129.3 +0.030 ★CR CSR
2018-09-08 Heritage High School 5000m 19:06.6 32nd · 4th on team 129.5 -0.001 PR CR SR CSR
2018-08-31 Julia deKoevend Park 5000m 19:51 10th · 3rd on team 131.3 +0.054 PR CR R SR CSR RSR
2018-08-25 Cherry Creek State Park 5000m 20:28 5th · 3rd on team 124.4 +0.033 PR ★CR R SR CSR RSR

Track & Field

TF speed rating

2025 TF 115.7

Auburn (AL) · Grade So

Date Meet Event Result Place Rating Difficulty PR/SR Flags
2025-04-26 Tiger Track Classic 1500m 4:38.43 11th · 4th on team 115.8 -0.038 ★PR SR RSR
2025-04-11 Crimson Tide Invitational 1500m 4:40.2 26th · 1st on team 115.5 -0.032 PR SR RSR

2024 TF 115.3

Auburn (AL) · Grade Fr

Date Meet Event Result Place Rating Difficulty PR/SR Flags
2024-02-10 Music City Challenge 3000m 10:00.3 19th · 2nd on team 114.9 -0.041 ★PR SR
2024-01-19 Vanderbilt Invitational 1mile 5:01.83 32nd · 1st on team 115.0 -0.041 ★PR SR
2024-01-11 Harvey Glance Tide and Tigers Dual Meet 3000m 10:06.66 5th · 2nd on team 116.0 -0.040 PR SR RSR

2023 TF 117.0

Unattached (TX) · Grade FR

Date Meet Event Result Place Rating Difficulty PR/SR Flags
2023-04-21 Meet results → Women's 5000 Meters 17:16.53 10th · 2nd on team 117.0 ★PR SR RSR

2022 TF 137.8

Cherry Creek (CO) · Grade 12

Date Meet Event Result Place Rating Difficulty PR/SR Flags
2022-05-21 CHSSA State Championships 1600m 4:59.52 6th · 2nd on team 139.8 -0.011 ★PR SR
2022-05-21 CHSSA State Championships 800m 2:15.45 10th · 4th on team 139.5 -0.011 ★PR SR
2022-05-21 CHSSA State Championships 3200m 11:00 8th · 3rd on team 136.0 -0.011 ★PR SR
2022-04-16 Pomona Invitational 1600m 5:00.31 2nd · 2nd on team 140.0 -0.011 PR SR RSR
2022-04-02 Altitude Invitational 800m 2:17.68 4th · 2nd on team 137.2 -0.009 PR SR RSR
2022-04-02 Altitude Invitational 3200m 11:03.68 1st · 1st on team 136.6 -0.009 PR SR
2022-03-26 Broomfield Shootout 1600m 5:09.05 2nd · 1st on team 135.8 -0.012 SR RSR

2021 TF 135.6

Cherry Creek (CO) · Grade 11

Date Meet Event Result Place Rating Difficulty PR/SR Flags
2021-06-26 Colorado State Track and Field Championships 1600m 5:05.48 8th · 2nd on team 138.0 -0.011
2021-06-26 Colorado State Track and Field Championships 3200m 11:12.16 9th · 2nd on team 135.6 -0.011 PR SR
2021-06-26 Colorado State Track and Field Championships 800m 2:21.99 17th · 5th on team 133.4 -0.011
2021-06-19 Continental League Championships 1600m 5:05.4 2nd · 1st on team 139.1 -0.003 PR SR RSR
2021-06-12 Stutler Twilight 3200m 11:14.19 4th · 1st on team 135.1 -0.014 PR SR
2021-06-03 Centennial League Qualifier #4 3200m 11:43.13 1st · 1st on team 134.1 +0.020
2021-05-28 Lion Classic Invitational 800m 2:19 2nd · 2nd on team 135.8 -0.015 PR SR
2021-05-15 Centennial League Qualifier #2 3200m 11:25.34 2nd · 2nd on team 137.5 +0.020 SR RSR
2021-05-15 Centennial League Qualifier #2 800m 2:28.36 4th · 4th on team 131.8 +0.020 SR
2021-05-08 Centennial League Qualifier #1B 1600m 5:15.01 3rd · 3rd on team 135.2 -0.002 SR RSR

2019 TF 133.7

Cherry Creek (CO) · Grade 9

Date Meet Event Result Place Rating Difficulty PR/SR Flags
2019-05-18 CHSAA State Track and Field Championship 3200m 11:15.71 8th · 2nd on team 134.7 -0.011 PR SR
2019-05-18 CHSAA State Track and Field Championship 800m 2:22.78 15th · 3rd on team 132.6 -0.011
2019-05-18 CHSAA State Track and Field Championship 1600m 5:10.64 10th · 2nd on team 136.2 -0.011
2019-05-04 Cherry Creek Invitational 3200m 11:15.91 1st · 1st on team 134.7 -0.014 PR SR
2019-05-02 Centennial League 9/10 Championships 800m 2:20.78 3rd · 2nd on team 133.7 -0.014 PR SR
2019-04-26 Stutler Bowl Twighlight Invitational 800m 2:23.72 8th · 2nd on team 130.9 -0.014 PR SR
2019-04-26 Stutler Bowl Twighlight Invitational 1600m 5:07.76 2nd · 2nd on team 136.9 -0.014
2019-04-20 Dakota Ridge Invitational 1600m 5:07.59 4th · 1st on team 137.6 -0.011 PR R SR RSR
2019-04-13 Pomona Invitational 3200m 11:16.33 3rd · 2nd on team 134.2 -0.011 PR SR
2019-04-06 Legend Titan Track Clash 800m 2:27.43 5th · 2nd on team 128.8 -0.003 PR SR
2019-04-06 Legend Titan Track Clash 1600m 5:18.21 1st · 1st on team 133.8 -0.003 PR SR
2019-03-30 Altitude Running Invitational 1600m 5:27.35 4th · 2nd on team 129.2 -0.012 PR SR RSR
2019-03-30 Altitude Running Invitational 3200m 11:18.22 3rd · 2nd on team 134.6 -0.012 PR SR RSR